createdAt,value
2023-03-03T00:00:32.551Z,994.36
2023-03-03T00:01:34.293Z,994.36
2023-03-03T00:02:36.066Z,994.34
2023-03-03T00:03:37.801Z,994.32
2023-03-03T00:04:39.491Z,994.33
2023-03-03T00:05:41.228Z,994.34
2023-03-03T00:06:43.016Z,994.3
2023-03-03T00:07:44.801Z,994.34
2023-03-03T00:08:46.436Z,994.32
2023-03-03T00:09:48.174Z,994.34
2023-03-03T00:10:49.910Z,994.37
2023-03-03T00:11:51.593Z,994.36
2023-03-03T00:12:53.334Z,994.34
2023-03-03T00:13:55.074Z,994.37
2023-03-03T00:14:56.816Z,994.31
2023-03-03T00:15:58.635Z,994.36
2023-03-03T00:17:00.305Z,994.33
2023-03-03T00:18:02.197Z,994.35
2023-03-03T00:19:03.842Z,994.36
2023-03-03T00:20:05.481Z,994.39
2023-03-03T00:21:07.202Z,994.43
2023-03-03T00:22:08.937Z,994.43
2023-03-03T00:23:10.717Z,994.45
2023-03-03T00:24:12.393Z,994.43
2023-03-03T00:25:14.148Z,994.43
2023-03-03T00:26:15.894Z,994.42
2023-03-03T00:27:17.642Z,994.4
2023-03-03T00:28:19.373Z,994.43
2023-03-03T00:29:21.076Z,994.46
2023-03-03T00:30:22.908Z,994.51
2023-03-03T00:31:24.769Z,994.51
2023-03-03T00:32:26.328Z,994.59
2023-03-03T00:33:27.994Z,994.63
2023-03-03T00:34:29.730Z,994.64
2023-03-03T00:35:31.582Z,994.65
2023-03-03T00:36:33.220Z,994.65
2023-03-03T00:37:35.076Z,994.66
2023-03-03T00:38:36.750Z,994.73
2023-03-03T00:39:38.453Z,994.7
2023-03-03T00:40:40.128Z,994.69
2023-03-03T00:41:41.893Z,994.73
2023-03-03T00:42:43.836Z,994.76
2023-03-03T00:43:45.457Z,994.81
2023-03-03T00:44:47.100Z,994.8
2023-03-03T00:45:48.934Z,994.78
2023-03-03T00:46:50.580Z,994.85
2023-03-03T00:47:52.277Z,994.76
2023-03-03T00:48:54.054Z,994.76
2023-03-03T00:49:55.765Z,994.73
2023-03-03T00:50:57.563Z,994.79
2023-03-03T00:51:59.208Z,994.71
2023-03-03T00:53:00.941Z,994.79
2023-03-03T00:54:02.733Z,994.75
2023-03-03T00:55:04.440Z,994.74
2023-03-03T00:56:06.158Z,994.78
2023-03-03T00:57:07.905Z,994.84
2023-03-03T00:58:09.618Z,994.81
2023-03-03T00:59:11.377Z,994.84
2023-03-03T01:00:13.105Z,994.84
2023-03-03T01:01:14.878Z,994.83
2023-03-03T01:02:16.618Z,994.87
2023-03-03T01:03:18.272Z,994.85
2023-03-03T01:04:20.043Z,994.92
2023-03-03T01:05:21.756Z,994.91
2023-03-03T01:06:23.611Z,994.84
2023-03-03T01:07:25.207Z,994.9
2023-03-03T01:08:26.998Z,994.77
2023-03-03T01:09:28.706Z,994.85
2023-03-03T01:10:30.440Z,994.88
2023-03-03T01:11:32.181Z,994.83
2023-03-03T01:12:33.897Z,994.82
2023-03-03T01:13:37.794Z,994.89
2023-03-03T01:14:37.376Z,994.83
2023-03-03T01:15:39.221Z,994.78
2023-03-03T01:16:40.794Z,994.76
2023-03-03T01:17:42.774Z,994.71
2023-03-03T01:18:44.284Z,994.77
2023-03-03T01:19:46.064Z,994.7
2023-03-03T01:20:47.738Z,994.76
2023-03-03T01:21:49.475Z,994.66
2023-03-03T01:22:51.245Z,994.66
2023-03-03T01:23:52.955Z,994.65
2023-03-03T01:24:54.680Z,994.64
2023-03-03T01:25:56.431Z,994.68
2023-03-03T01:26:58.173Z,994.64
2023-03-03T01:27:59.861Z,994.69
2023-03-03T01:29:01.555Z,994.66
2023-03-03T01:30:03.474Z,994.66
2023-03-03T01:31:05.193Z,994.65
2023-03-03T01:32:06.852Z,994.67
2023-03-03T01:33:08.527Z,994.66
2023-03-03T01:34:10.238Z,994.64
2023-03-03T01:35:11.977Z,994.69
2023-03-03T01:36:13.703Z,994.65
2023-03-03T01:37:15.451Z,994.65
2023-03-03T01:38:17.200Z,994.61
2023-03-03T01:39:18.917Z,994.7
2023-03-03T01:40:20.667Z,994.69
2023-03-03T01:41:22.556Z,994.7
2023-03-03T01:42:24.165Z,994.69
2023-03-03T01:43:25.836Z,994.73
2023-03-03T01:44:27.575Z,994.68
2023-03-03T01:45:29.300Z,994.74
2023-03-03T01:46:31.048Z,994.68
2023-03-03T01:47:32.779Z,994.71
2023-03-03T01:48:34.528Z,994.73
2023-03-03T01:49:36.248Z,994.71
2023-03-03T01:50:37.991Z,994.62
2023-03-03T01:51:39.703Z,994.66
2023-03-03T01:52:41.447Z,994.62
2023-03-03T01:53:43.237Z,994.64
2023-03-03T01:54:44.975Z,994.6
2023-03-03T01:55:46.657Z,994.65
2023-03-03T01:56:48.372Z,994.68
2023-03-03T01:57:50.125Z,994.7
2023-03-03T01:58:51.881Z,994.71
2023-03-03T01:59:53.621Z,994.71
2023-03-03T02:00:55.334Z,994.73
2023-03-03T02:01:57.155Z,994.68
2023-03-03T02:02:58.847Z,994.71
2023-03-03T02:04:00.571Z,994.74
2023-03-03T02:05:02.373Z,994.71
2023-03-03T02:06:04.280Z,994.7
2023-03-03T02:07:05.768Z,994.69
2023-03-03T02:08:07.461Z,994.6
2023-03-03T02:09:09.218Z,994.62
2023-03-03T02:10:10.960Z,994.65
2023-03-03T02:11:12.672Z,994.54
2023-03-03T02:12:14.396Z,994.58
2023-03-03T02:13:16.143Z,994.63
2023-03-03T02:14:17.873Z,994.59
2023-03-03T02:15:19.597Z,994.53
2023-03-03T02:16:21.372Z,994.64
2023-03-03T02:17:23.178Z,994.62
2023-03-03T02:18:24.820Z,994.59
2023-03-03T02:19:26.566Z,994.57
2023-03-03T02:20:28.293Z,994.6
2023-03-03T02:21:30.024Z,994.57
2023-03-03T02:22:31.730Z,994.53
2023-03-03T02:23:33.467Z,994.6
2023-03-03T02:24:35.190Z,994.65
2023-03-03T02:25:36.928Z,994.56
2023-03-03T02:26:38.655Z,994.65
2023-03-03T02:27:40.431Z,994.66
2023-03-03T02:28:42.121Z,994.67
2023-03-03T02:29:43.882Z,994.59
2023-03-03T02:30:45.618Z,994.62
2023-03-03T02:31:47.619Z,994.62
2023-03-03T02:32:49.072Z,994.58
2023-03-03T02:33:50.812Z,994.65
2023-03-03T02:34:52.572Z,994.64
2023-03-03T02:35:54.389Z,994.65
2023-03-03T02:36:56.019Z,994.61
2023-03-03T02:37:57.719Z,994.66
2023-03-03T02:38:59.509Z,994.64
2023-03-03T02:40:01.217Z,994.65
2023-03-03T02:41:03.034Z,994.62
2023-03-03T02:42:04.677Z,994.63
2023-03-03T02:43:06.424Z,994.58
2023-03-03T02:44:08.137Z,994.54
2023-03-03T02:45:09.865Z,994.55
2023-03-03T02:46:11.608Z,994.56
2023-03-03T02:47:13.351Z,994.59
2023-03-03T02:48:15.069Z,994.54
2023-03-03T02:49:16.824Z,994.59
2023-03-03T02:50:18.540Z,994.6
2023-03-03T02:51:20.252Z,994.56
2023-03-03T02:52:22.213Z,994.59
2023-03-03T02:53:23.824Z,994.59
2023-03-03T02:54:25.464Z,994.56
2023-03-03T02:55:27.205Z,994.59
2023-03-03T02:56:28.921Z,994.59
2023-03-03T02:57:30.649Z,994.53
2023-03-03T02:58:32.388Z,994.55
2023-03-03T02:59:34.162Z,994.52
2023-03-03T03:00:35.857Z,994.57
2023-03-03T03:01:37.602Z,994.56
2023-03-03T03:02:39.335Z,994.55
2023-03-03T03:03:41.085Z,994.56
2023-03-03T03:04:43.006Z,994.56
2023-03-03T03:05:44.601Z,994.52
2023-03-03T03:06:46.311Z,994.54
2023-03-03T03:07:47.989Z,994.55
2023-03-03T03:08:49.760Z,994.61
2023-03-03T03:09:51.458Z,994.55
2023-03-03T03:10:53.185Z,994.59
2023-03-03T03:11:54.935Z,994.6
2023-03-03T03:12:56.660Z,994.54
2023-03-03T03:13:58.380Z,994.51
2023-03-03T03:15:00.159Z,994.56
2023-03-03T03:16:01.866Z,994.58
2023-03-03T03:17:03.634Z,994.61
2023-03-03T03:18:05.333Z,994.63
2023-03-03T03:19:07.081Z,994.69
2023-03-03T03:20:08.805Z,994.66
2023-03-03T03:21:10.577Z,994.67
2023-03-03T03:22:12.272Z,994.67
2023-03-03T03:23:13.986Z,994.7
2023-03-03T03:24:15.769Z,994.71
2023-03-03T03:25:17.450Z,994.69
2023-03-03T03:26:19.195Z,994.69
2023-03-03T03:27:20.989Z,994.72
2023-03-03T03:28:22.756Z,994.72
2023-03-03T03:29:24.378Z,994.67
2023-03-03T03:30:26.153Z,994.69
2023-03-03T03:31:27.861Z,994.69
2023-03-03T03:32:29.642Z,994.61
2023-03-03T03:33:31.360Z,994.67
2023-03-03T03:34:33.044Z,994.69
2023-03-03T03:35:34.866Z,994.68
2023-03-03T03:36:36.641Z,994.7
2023-03-03T03:37:38.256Z,994.63
2023-03-03T03:38:40.002Z,994.68
2023-03-03T03:39:41.707Z,994.66
2023-03-03T03:40:43.511Z,994.64
2023-03-03T03:41:45.193Z,994.67
2023-03-03T03:42:46.976Z,994.6
2023-03-03T03:43:48.692Z,994.71
2023-03-03T03:44:50.435Z,994.7
2023-03-03T03:45:52.189Z,994.73
2023-03-03T03:46:53.869Z,994.74
2023-03-03T03:47:55.621Z,994.78
2023-03-03T03:48:57.315Z,994.74
2023-03-03T03:49:59.057Z,994.71
2023-03-03T03:51:00.834Z,994.73
2023-03-03T03:52:02.626Z,994.71
2023-03-03T03:53:04.298Z,994.72
2023-03-03T03:54:06.028Z,994.69
2023-03-03T03:55:07.739Z,994.71
2023-03-03T03:56:09.480Z,994.79
2023-03-03T03:57:11.194Z,994.73
2023-03-03T03:58:13.066Z,994.79
2023-03-03T03:59:14.698Z,994.8
2023-03-03T04:00:16.385Z,994.8
2023-03-03T04:01:18.137Z,994.86
2023-03-03T04:02:20.008Z,994.77
2023-03-03T04:03:21.814Z,994.79
2023-03-03T04:04:23.326Z,994.76
2023-03-03T04:05:25.056Z,994.75
2023-03-03T04:06:26.802Z,994.72
2023-03-03T04:07:28.548Z,994.75
2023-03-03T04:08:30.260Z,994.78
2023-03-03T04:09:31.997Z,994.72
2023-03-03T04:10:33.706Z,994.78
2023-03-03T04:11:35.433Z,994.75
2023-03-03T04:12:37.196Z,994.86
2023-03-03T04:13:38.910Z,994.84
2023-03-03T04:14:40.604Z,994.82
2023-03-03T04:15:42.448Z,994.85
2023-03-03T04:16:44.079Z,994.88
2023-03-03T04:17:45.841Z,994.87
2023-03-03T04:18:47.560Z,994.87
2023-03-03T04:19:49.318Z,994.93
2023-03-03T04:20:50.999Z,994.94
2023-03-03T04:21:52.779Z,994.99
2023-03-03T04:22:54.480Z,995.01
2023-03-03T04:23:56.216Z,994.99
2023-03-03T04:24:57.941Z,995
2023-03-03T04:25:59.677Z,994.94
2023-03-03T04:27:01.423Z,994.95
2023-03-03T04:28:05.527Z,994.95
2023-03-03T04:29:04.896Z,994.94
2023-03-03T04:30:06.613Z,994.94
2023-03-03T04:31:08.413Z,994.96
2023-03-03T04:32:10.120Z,994.95
2023-03-03T04:33:11.813Z,994.93
2023-03-03T04:34:13.601Z,994.9
2023-03-03T04:35:15.284Z,994.94
2023-03-03T04:36:17.219Z,994.91
2023-03-03T04:37:18.773Z,994.89
2023-03-03T04:38:20.503Z,994.89
2023-03-03T04:39:22.239Z,994.91
2023-03-03T04:40:23.984Z,994.88
2023-03-03T04:41:25.716Z,994.86
2023-03-03T04:42:27.409Z,994.89
2023-03-03T04:43:29.174Z,994.87
2023-03-03T04:44:30.913Z,994.91
2023-03-03T04:45:32.620Z,994.94
2023-03-03T04:46:34.430Z,994.96
2023-03-03T04:47:36.075Z,995.01
2023-03-03T04:48:37.833Z,995
2023-03-03T04:49:39.576Z,994.98
2023-03-03T04:50:41.301Z,995.03
2023-03-03T04:51:43.044Z,995.02
2023-03-03T04:52:44.902Z,995.01
2023-03-03T04:53:46.474Z,994.99
2023-03-03T04:54:48.253Z,995.01
2023-03-03T04:55:49.960Z,995
2023-03-03T04:56:51.710Z,994.99
2023-03-03T04:57:53.406Z,994.99
2023-03-03T04:58:55.160Z,994.99
2023-03-03T04:59:56.927Z,994.96
2023-03-03T05:00:58.609Z,994.98
2023-03-03T05:02:00.378Z,994.95
2023-03-03T05:03:02.170Z,994.93
2023-03-03T05:04:03.808Z,994.99
2023-03-03T05:05:05.541Z,994.98
2023-03-03T05:06:07.370Z,994.99
2023-03-03T05:07:09.019Z,995.02
2023-03-03T05:08:10.800Z,995.01
2023-03-03T05:09:12.472Z,995.02
2023-03-03T05:10:14.241Z,995.02
2023-03-03T05:11:15.962Z,995.06
2023-03-03T05:12:17.664Z,994.99
2023-03-03T05:13:19.410Z,995.03
2023-03-03T05:14:21.163Z,995.1
2023-03-03T05:15:22.885Z,995.13
2023-03-03T05:16:24.712Z,995.13
2023-03-03T05:17:26.321Z,995.12
2023-03-03T05:18:28.162Z,995.12
2023-03-03T05:19:29.800Z,995.04
2023-03-03T05:20:31.565Z,995.15
2023-03-03T05:21:33.305Z,995.01
2023-03-03T05:22:35.026Z,995.02
2023-03-03T05:23:36.726Z,995.09
2023-03-03T05:24:38.482Z,995.06
2023-03-03T05:25:40.240Z,995.04
2023-03-03T05:26:41.974Z,995.07
2023-03-03T05:27:43.667Z,995.07
2023-03-03T05:28:45.395Z,995.02
2023-03-03T05:29:47.157Z,994.97
2023-03-03T05:30:48.868Z,995.03
2023-03-03T05:31:50.728Z,994.99
2023-03-03T05:32:52.369Z,994.99
2023-03-03T05:33:54.066Z,994.99
2023-03-03T05:34:55.811Z,995
2023-03-03T05:35:57.646Z,995.02
2023-03-03T05:36:59.264Z,995.05
2023-03-03T05:38:01.988Z,995.02
2023-03-03T05:39:02.780Z,994.98
2023-03-03T05:40:04.486Z,994.99
2023-03-03T05:41:06.196Z,995.01
2023-03-03T05:42:07.939Z,994.9
2023-03-03T05:43:09.653Z,995.04
2023-03-03T05:44:11.408Z,995.07
2023-03-03T05:45:13.181Z,995.06
2023-03-03T05:46:14.938Z,995.07
2023-03-03T05:47:16.595Z,995.13
2023-03-03T05:48:18.572Z,995.07
2023-03-03T05:49:20.125Z,995.1
2023-03-03T05:50:21.798Z,995.13
2023-03-03T05:51:23.579Z,995.12
2023-03-03T05:52:25.303Z,995.19
2023-03-03T05:53:26.996Z,995.09
2023-03-03T05:54:28.761Z,995.16
2023-03-03T05:55:30.478Z,995.14
2023-03-03T05:56:32.237Z,995.22
2023-03-03T05:57:33.939Z,995.23
2023-03-03T05:58:35.675Z,995.21
2023-03-03T05:59:37.461Z,995.19
2023-03-03T06:00:39.191Z,995.22
2023-03-03T06:01:41.005Z,995.19
2023-03-03T06:02:42.718Z,995.23
2023-03-03T06:03:44.353Z,995.22
2023-03-03T06:04:46.108Z,995.28
2023-03-03T06:05:47.816Z,995.3
2023-03-03T06:06:49.543Z,995.28
2023-03-03T06:07:51.271Z,995.33
2023-03-03T06:08:53.833Z,995.27
2023-03-03T06:09:54.740Z,995.24
2023-03-03T06:10:56.509Z,995.32
2023-03-03T06:11:58.390Z,995.34
2023-03-03T06:12:59.965Z,995.34
2023-03-03T06:14:01.664Z,995.35
2023-03-03T06:15:04.459Z,995.14
2023-03-03T06:16:05.204Z,995.37
2023-03-03T06:17:06.913Z,995.39
2023-03-03T06:18:08.644Z,995.47
2023-03-03T06:19:10.345Z,995.42
2023-03-03T06:20:12.096Z,995.43
2023-03-03T06:21:13.844Z,995.4
2023-03-03T06:22:15.599Z,995.48
2023-03-03T06:23:17.296Z,995.45
2023-03-03T06:24:19.003Z,995.4
2023-03-03T06:25:20.797Z,995.5
2023-03-03T06:26:22.468Z,995.53
2023-03-03T06:27:24.230Z,995.51
2023-03-03T06:28:25.985Z,995.5
2023-03-03T06:29:27.670Z,995.6
2023-03-03T06:30:29.498Z,995.52
2023-03-03T06:31:31.194Z,995.57
2023-03-03T06:32:32.930Z,995.58
2023-03-03T06:33:34.615Z,995.5
2023-03-03T06:34:36.375Z,995.48
2023-03-03T06:35:38.181Z,995.59
2023-03-03T06:36:39.838Z,995.57
2023-03-03T06:37:41.640Z,995.6
2023-03-03T06:38:43.287Z,995.61
2023-03-03T06:39:45.034Z,995.55
2023-03-03T06:40:46.748Z,995.56
2023-03-03T06:41:48.466Z,995.61
2023-03-03T06:42:50.251Z,995.62
2023-03-03T06:43:51.930Z,995.6
2023-03-03T06:44:53.699Z,995.64
2023-03-03T06:45:55.481Z,995.67
2023-03-03T06:46:57.135Z,995.69
2023-03-03T06:47:58.864Z,995.7
2023-03-03T06:49:00.626Z,995.69
2023-03-03T06:50:02.387Z,995.73
2023-03-03T06:51:04.064Z,995.76
2023-03-03T06:52:05.806Z,995.78
2023-03-03T06:53:07.528Z,995.77
2023-03-03T06:54:09.271Z,995.83
2023-03-03T06:55:11.229Z,995.82
2023-03-03T06:56:12.789Z,995.87
2023-03-03T06:57:14.511Z,995.87
2023-03-03T06:58:16.205Z,995.89
2023-03-03T06:59:17.945Z,995.9
2023-03-03T07:00:19.704Z,995.97
2023-03-03T07:01:21.436Z,995.94
2023-03-03T07:02:23.143Z,996
2023-03-03T07:03:24.917Z,995.97
2023-03-03T07:04:26.709Z,996
2023-03-03T07:05:28.335Z,995.97
2023-03-03T07:06:30.111Z,995.96
2023-03-03T07:07:31.863Z,996.03
2023-03-03T07:08:33.583Z,995.96
2023-03-03T07:09:35.278Z,996.02
2023-03-03T07:10:37.035Z,995.91
2023-03-03T07:11:38.775Z,996.01
2023-03-03T07:12:40.511Z,996.01
2023-03-03T07:13:42.260Z,996.06
2023-03-03T07:14:43.975Z,996.02
2023-03-03T07:15:45.682Z,995.99
2023-03-03T07:16:47.518Z,996.03
2023-03-03T07:17:51.083Z,996.08
2023-03-03T07:18:50.892Z,996.1
2023-03-03T07:19:52.627Z,996.13
2023-03-03T07:20:54.341Z,996.1
2023-03-03T07:21:56.087Z,996.13
2023-03-03T07:22:57.833Z,996.11
2023-03-03T07:23:59.574Z,996.13
2023-03-03T07:25:01.284Z,996.19
2023-03-03T07:26:03.011Z,996.2
2023-03-03T07:27:04.752Z,996.15
2023-03-03T07:28:06.488Z,996.1
2023-03-03T07:29:08.236Z,996.2
2023-03-03T07:30:09.980Z,996.2
2023-03-03T07:31:11.762Z,996.19
2023-03-03T07:32:13.433Z,996.28
2023-03-03T07:33:15.273Z,996.29
2023-03-03T07:34:16.909Z,996.26
2023-03-03T07:35:18.661Z,996.26
2023-03-03T07:36:20.379Z,996.36
2023-03-03T07:37:22.144Z,996.38
2023-03-03T07:38:23.819Z,996.39
2023-03-03T07:39:25.604Z,996.39
2023-03-03T07:40:27.311Z,996.41
2023-03-03T07:41:29.035Z,996.47
2023-03-03T07:42:30.742Z,996.4
2023-03-03T07:43:32.515Z,996.41
2023-03-03T07:44:34.220Z,996.39
2023-03-03T07:45:35.937Z,996.4
2023-03-03T07:46:37.716Z,996.38
2023-03-03T07:47:39.426Z,996.43
2023-03-03T07:48:41.192Z,996.42
2023-03-03T07:49:42.888Z,996.45
2023-03-03T07:50:44.654Z,996.49
2023-03-03T07:51:46.349Z,996.52
2023-03-03T07:52:48.081Z,996.49
2023-03-03T07:53:49.867Z,996.49
2023-03-03T07:54:51.567Z,996.49
2023-03-03T07:55:53.288Z,996.49
2023-03-03T07:56:55.002Z,996.59
2023-03-03T07:57:59.056Z,996.58
2023-03-03T07:58:58.493Z,996.65
2023-03-03T08:00:00.263Z,996.61
2023-03-03T08:01:01.937Z,996.64
2023-03-03T08:02:03.686Z,996.63
2023-03-03T08:03:05.445Z,996.59
2023-03-03T08:04:07.246Z,996.56
2023-03-03T08:05:08.952Z,996.6
2023-03-03T08:06:10.591Z,996.65
2023-03-03T08:07:12.536Z,996.66
2023-03-03T08:08:14.064Z,996.66
2023-03-03T08:09:15.800Z,996.64
2023-03-03T08:10:17.581Z,996.67
2023-03-03T08:11:19.250Z,996.67
2023-03-03T08:12:21.018Z,996.61
2023-03-03T08:13:22.728Z,996.64
2023-03-03T08:14:24.483Z,996.6
2023-03-03T08:15:26.233Z,996.57
2023-03-03T08:16:27.911Z,996.58
2023-03-03T08:17:29.646Z,996.55
2023-03-03T08:18:31.420Z,996.56
2023-03-03T08:19:33.187Z,996.58
2023-03-03T08:20:34.840Z,996.54
2023-03-03T08:21:36.604Z,996.52
2023-03-03T08:22:38.360Z,996.6
2023-03-03T08:23:40.124Z,996.57
2023-03-03T08:24:41.788Z,996.55
2023-03-03T08:25:43.523Z,996.56
2023-03-03T08:26:45.375Z,996.6
2023-03-03T08:27:47.128Z,996.61
2023-03-03T08:28:48.730Z,996.62
2023-03-03T08:29:50.446Z,996.65
2023-03-03T08:30:57.830Z,996.69
2023-03-03T08:31:54.054Z,996.69
2023-03-03T08:32:55.697Z,996.79
2023-03-03T08:33:57.415Z,996.7
2023-03-03T08:34:59.114Z,996.76
2023-03-03T08:36:00.918Z,996.77
2023-03-03T08:37:02.580Z,996.72
2023-03-03T08:38:04.308Z,996.67
2023-03-03T08:39:06.056Z,996.71
2023-03-03T08:40:07.834Z,996.7
2023-03-03T08:41:09.534Z,996.64
2023-03-03T08:42:11.245Z,996.63
2023-03-03T08:43:12.988Z,996.67
2023-03-03T08:44:14.739Z,996.67
2023-03-03T08:45:16.446Z,996.68
2023-03-03T08:46:18.209Z,996.67
2023-03-03T08:47:19.913Z,996.69
2023-03-03T08:48:21.639Z,996.67
2023-03-03T08:49:23.373Z,996.73
2023-03-03T08:50:25.389Z,996.71
2023-03-03T08:51:26.855Z,996.69
2023-03-03T08:52:28.583Z,996.72
2023-03-03T08:53:30.352Z,996.69
2023-03-03T08:54:32.066Z,996.71
2023-03-03T08:55:33.785Z,996.74
2023-03-03T08:56:35.510Z,996.79
2023-03-03T08:57:37.269Z,996.78
2023-03-03T08:58:39.372Z,996.78
2023-03-03T08:59:40.738Z,996.8
2023-03-03T09:00:42.474Z,996.74
2023-03-03T09:01:44.225Z,996.73
2023-03-03T09:02:45.967Z,996.74
2023-03-03T09:03:47.677Z,996.72
2023-03-03T09:04:49.469Z,996.75
2023-03-03T09:05:51.100Z,996.75
2023-03-03T09:06:52.880Z,996.73
2023-03-03T09:07:54.581Z,996.72
2023-03-03T09:08:56.371Z,996.78
2023-03-03T09:09:58.039Z,996.75
2023-03-03T09:10:59.766Z,996.79
2023-03-03T09:12:01.546Z,996.78
2023-03-03T09:13:03.247Z,996.76
2023-03-03T09:14:05.039Z,996.75
2023-03-03T09:15:06.735Z,996.8
2023-03-03T09:16:08.502Z,996.76
2023-03-03T09:17:10.255Z,996.79
2023-03-03T09:18:11.957Z,996.77
2023-03-03T09:19:13.667Z,996.81
2023-03-03T09:20:15.394Z,996.87
2023-03-03T09:21:17.112Z,996.85
2023-03-03T09:22:18.861Z,996.82
2023-03-03T09:23:20.600Z,996.86
2023-03-03T09:24:22.323Z,996.81
2023-03-03T09:25:24.049Z,996.79
2023-03-03T09:26:25.790Z,996.83
2023-03-03T09:27:27.532Z,996.86
2023-03-03T09:28:29.265Z,996.89
2023-03-03T09:29:31.006Z,996.82
2023-03-03T09:30:32.717Z,996.83
2023-03-03T09:31:34.501Z,996.87
2023-03-03T09:32:36.271Z,996.83
2023-03-03T09:33:37.929Z,996.87
2023-03-03T09:34:39.665Z,996.76
2023-03-03T09:35:41.434Z,996.88
2023-03-03T09:36:43.152Z,996.89
2023-03-03T09:37:44.903Z,996.87
2023-03-03T09:38:46.604Z,996.9
2023-03-03T09:39:48.323Z,996.87
2023-03-03T09:40:50.074Z,996.82
2023-03-03T09:41:51.789Z,996.88
2023-03-03T09:42:53.528Z,996.91
2023-03-03T09:43:55.285Z,996.94
2023-03-03T09:44:57.004Z,996.91
2023-03-03T09:45:58.735Z,996.88
2023-03-03T09:47:00.548Z,996.91
2023-03-03T09:48:02.190Z,996.89
2023-03-03T09:49:03.938Z,996.9
2023-03-03T09:50:05.658Z,996.92
2023-03-03T09:51:07.396Z,996.9
2023-03-03T09:52:09.140Z,996.93
2023-03-03T09:53:11.104Z,996.95
2023-03-03T09:54:12.600Z,996.93
2023-03-03T09:55:14.338Z,996.98
2023-03-03T09:56:16.066Z,996.95
2023-03-03T09:57:17.834Z,997.01
2023-03-03T09:58:19.532Z,997
2023-03-03T09:59:21.302Z,997.01
2023-03-03T10:00:23.066Z,996.98
2023-03-03T10:01:24.730Z,997.03
2023-03-03T10:02:26.490Z,996.96
2023-03-03T10:03:28.333Z,996.98
2023-03-03T10:04:29.996Z,997
2023-03-03T10:05:31.657Z,997.03
2023-03-03T10:06:33.396Z,997.06
2023-03-03T10:07:35.114Z,997.08
2023-03-03T10:08:36.851Z,997.1
2023-03-03T10:09:38.580Z,997.1
2023-03-03T10:10:40.333Z,997.09
2023-03-03T10:11:42.066Z,997.1
2023-03-03T10:12:43.785Z,997.15
2023-03-03T10:13:45.696Z,997.11
2023-03-03T10:14:47.424Z,997.13
2023-03-03T10:15:48.970Z,997.13
2023-03-03T10:16:50.816Z,997.13
2023-03-03T10:17:53.198Z,997.17
2023-03-03T10:18:54.217Z,997.14
2023-03-03T10:19:55.925Z,997.18
2023-03-03T10:20:57.658Z,997.08
2023-03-03T10:21:59.382Z,997.13
2023-03-03T10:23:01.198Z,997.09
2023-03-03T10:24:02.883Z,997.12
2023-03-03T10:25:04.621Z,997.16
2023-03-03T10:26:06.334Z,997.17
2023-03-03T10:27:13.609Z,997.2
2023-03-03T10:28:09.798Z,997.19
2023-03-03T10:29:11.532Z,997.19
2023-03-03T10:30:13.252Z,997.21
2023-03-03T10:31:18.097Z,997.13
2023-03-03T10:32:16.910Z,997.18
2023-03-03T10:33:18.703Z,997.14
2023-03-03T10:34:20.353Z,997.16
2023-03-03T10:35:21.963Z,997.14
2023-03-03T10:36:23.831Z,997.2
2023-03-03T10:37:25.398Z,997.19
2023-03-03T10:38:27.159Z,997.18
2023-03-03T10:39:28.856Z,997.15
2023-03-03T10:40:30.608Z,997.2
2023-03-03T10:41:32.359Z,997.16
2023-03-03T10:42:34.060Z,997.2
2023-03-03T10:43:35.817Z,997.18
2023-03-03T10:44:37.532Z,997.17
2023-03-03T10:45:39.413Z,997.15
2023-03-03T10:46:41.037Z,997.22
2023-03-03T10:47:42.743Z,997.22
2023-03-03T10:48:44.490Z,997.21
2023-03-03T10:49:46.205Z,997.15
2023-03-03T10:50:47.968Z,997.19
2023-03-03T10:51:49.701Z,997.08
2023-03-03T10:52:51.404Z,997.16
2023-03-03T10:53:53.160Z,997.2
2023-03-03T10:54:54.885Z,997.21
2023-03-03T10:55:56.596Z,997.19
2023-03-03T10:56:58.828Z,997.21
2023-03-03T10:58:00.128Z,997.2
2023-03-03T10:59:02.122Z,997.17
2023-03-03T11:00:03.538Z,997.2
2023-03-03T11:01:05.322Z,997.18
2023-03-03T11:02:07.020Z,997.21
2023-03-03T11:03:08.730Z,997.17
2023-03-03T11:04:10.632Z,997.2
2023-03-03T11:05:12.231Z,997.26
2023-03-03T11:06:13.925Z,997.19
2023-03-03T11:07:15.663Z,997.19
2023-03-03T11:08:17.402Z,997.25
2023-03-03T11:09:19.143Z,997.27
2023-03-03T11:10:20.860Z,997.27
2023-03-03T11:11:22.602Z,997.27
2023-03-03T11:12:24.364Z,997.29
2023-03-03T11:13:26.076Z,997.3
2023-03-03T11:14:27.840Z,997.33
2023-03-03T11:15:29.536Z,997.33
2023-03-03T11:16:31.377Z,997.27
2023-03-03T11:17:33.014Z,997.33
2023-03-03T11:18:34.744Z,997.33
2023-03-03T11:19:36.461Z,997.29
2023-03-03T11:20:38.202Z,997.35
2023-03-03T11:21:39.976Z,997.35
2023-03-03T11:22:41.669Z,997.31
2023-03-03T11:23:43.419Z,997.24
2023-03-03T11:24:45.189Z,997.29
2023-03-03T11:25:46.904Z,997.27
2023-03-03T11:26:48.612Z,997.24
2023-03-03T11:27:50.367Z,997.21
2023-03-03T11:28:52.072Z,997.22
2023-03-03T11:29:53.826Z,997.23
2023-03-03T11:30:55.590Z,997.2
2023-03-03T11:31:57.305Z,997.17
2023-03-03T11:32:58.998Z,997.18
2023-03-03T11:34:00.733Z,997.18
2023-03-03T11:35:02.494Z,997.17
2023-03-03T11:36:04.289Z,997.19
2023-03-03T11:37:05.950Z,997.18
2023-03-03T11:38:07.679Z,997.15
2023-03-03T11:39:09.429Z,997.18
2023-03-03T11:40:11.156Z,997.14
2023-03-03T11:41:12.886Z,997.18
2023-03-03T11:42:14.601Z,997.18
2023-03-03T11:43:29.922Z,997.15
2023-03-03T11:44:18.088Z,997.16
2023-03-03T11:45:19.821Z,997.11
2023-03-03T11:46:21.598Z,997.13
2023-03-03T11:47:23.264Z,997.14
2023-03-03T11:48:25.004Z,997.13
2023-03-03T11:49:26.737Z,997.06
2023-03-03T11:50:28.485Z,997.02
2023-03-03T11:51:30.195Z,997.07
2023-03-03T11:52:31.937Z,997.03
2023-03-03T11:53:33.674Z,997.08
2023-03-03T11:54:35.465Z,997.05
2023-03-03T11:55:37.216Z,997.08
2023-03-03T11:56:38.869Z,997.07
2023-03-03T11:57:40.612Z,997.01
2023-03-03T11:58:42.363Z,997
2023-03-03T11:59:44.061Z,997.03
2023-03-03T12:00:45.832Z,996.99
2023-03-03T12:01:47.543Z,996.96
2023-03-03T12:02:49.328Z,996.92
2023-03-03T12:03:51.089Z,996.97
2023-03-03T12:04:52.780Z,996.99
2023-03-03T12:05:54.525Z,996.89
2023-03-03T12:06:57.420Z,996.96
2023-03-03T12:07:57.943Z,996.96
2023-03-03T12:08:59.694Z,996.92
2023-03-03T12:10:01.428Z,996.92
2023-03-03T12:11:03.143Z,996.9
2023-03-03T12:12:04.872Z,996.84
2023-03-03T12:13:06.581Z,996.84
2023-03-03T12:14:08.331Z,996.77
2023-03-03T12:15:10.073Z,996.8
2023-03-03T12:16:11.919Z,996.74
2023-03-03T12:17:13.528Z,996.74
2023-03-03T12:18:15.305Z,996.7
2023-03-03T12:19:17.037Z,996.75
2023-03-03T12:20:18.737Z,996.68
2023-03-03T12:21:20.465Z,996.71
2023-03-03T12:22:22.207Z,996.65
2023-03-03T12:23:23.953Z,996.7
2023-03-03T12:24:25.682Z,996.69
2023-03-03T12:25:27.413Z,996.66
2023-03-03T12:26:29.152Z,996.67
2023-03-03T12:27:30.979Z,996.63
2023-03-03T12:28:32.608Z,996.7
2023-03-03T12:29:34.339Z,996.64
2023-03-03T12:30:36.063Z,996.59
2023-03-03T12:31:37.888Z,996.58
2023-03-03T12:32:39.538Z,996.59
2023-03-03T12:33:41.293Z,996.56
2023-03-03T12:34:43.008Z,996.59
2023-03-03T12:35:44.777Z,996.56
2023-03-03T12:36:46.486Z,996.58
2023-03-03T12:37:48.224Z,996.6
2023-03-03T12:38:49.939Z,996.54
2023-03-03T12:39:51.690Z,996.49
2023-03-03T12:40:53.416Z,996.53
2023-03-03T12:41:55.154Z,996.51
2023-03-03T12:42:56.872Z,996.52
2023-03-03T12:43:58.617Z,996.49
2023-03-03T12:45:00.336Z,996.48
2023-03-03T12:46:02.089Z,996.46
2023-03-03T12:47:03.893Z,996.46
2023-03-03T12:48:05.557Z,996.49
2023-03-03T12:49:07.301Z,996.44
2023-03-03T12:50:09.014Z,996.44
2023-03-03T12:51:10.765Z,996.45
2023-03-03T12:52:12.476Z,996.42
2023-03-03T12:53:14.241Z,996.37